sensor_id;sensor_type;location;lat;lon;timestamp;P1;durP1;ratioP1;P2;durP2;ratioP2
53521;SDS011;39398;48.382;9.802;2024-01-15T00:04:22;26.13;;;10.45;;
53521;SDS011;39398;48.382;9.802;2024-01-15T00:09:25;29.60;;;10.95;;
53521;SDS011;39398;48.382;9.802;2024-01-15T00:14:27;26.40;;;11.05;;
53521;SDS011;39398;48.382;9.802;2024-01-15T00:19:29;23.45;;;9.85;;
53521;SDS011;39398;48.382;9.802;2024-01-15T00:24:32;22.88;;;10.45;;
53521;SDS011;39398;48.382;9.802;2024-01-15T00:29:34;16.83;;;8.05;;
53521;SDS011;39398;48.382;9.802;2024-01-15T00:34:35;19.42;;;7.95;;
53521;SDS011;39398;48.382;9.802;2024-01-15T00:39:38;16.13;;;6.88;;
53521;SDS011;39398;48.382;9.802;2024-01-15T00:44:40;18.60;;;6.75;;
53521;SDS011;39398;48.382;9.802;2024-01-15T00:49:43;21.23;;;8.30;;
53521;SDS011;39398;48.382;9.802;2024-01-15T00:54:46;17.30;;;8.23;;
53521;SDS011;39398;48.382;9.802;2024-01-15T00:59:48;24.38;;;10.13;;
53521;SDS011;39398;48.382;9.802;2024-01-15T01:04:49;18.80;;;7.97;;
53521;SDS011;39398;48.382;9.802;2024-01-15T01:09:52;25.90;;;11.38;;
53521;SDS011;39398;48.382;9.802;2024-01-15T01:14:54;21.83;;;10.55;;
53521;SDS011;39398;48.382;9.802;2024-01-15T01:19:56;23.25;;;11.23;;
53521;SDS011;39398;48.382;9.802;2024-01-15T01:24:59;23.75;;;11.15;;
53521;SDS011;39398;48.382;9.802;2024-01-15T01:30:01;23.05;;;10.07;;
53521;SDS011;39398;48.382;9.802;2024-01-15T01:35:03;25.05;;;11.43;;
53521;SDS011;39398;48.382;9.802;2024-01-15T01:40:07;22.48;;;10.98;;
53521;SDS011;39398;48.382;9.802;2024-01-15T01:45:10;22.48;;;11.23;;
53521;SDS011;39398;48.382;9.802;2024-01-15T01:50:12;29.95;;;11.98;;
53521;SDS011;39398;48.382;9.802;2024-01-15T01:55:15;25.02;;;11.15;;
53521;SDS011;39398;48.382;9.802;2024-01-15T02:00:17;21.40;;;10.32;;
53521;SDS011;39398;48.382;9.802;2024-01-15T02:05:19;21.38;;;10.65;;
53521;SDS011;39398;48.382;9.802;2024-01-15T02:10:22;27.30;;;10.93;;
53521;SDS011;39398;48.382;9.802;2024-01-15T02:15:24;25.48;;;11.60;;
53521;SDS011;39398;48.382;9.802;2024-01-15T02:20:26;25.83;;;11.55;;
53521;SDS011;39398;48.382;9.802;2024-01-15T02:25:29;25.65;;;11.25;;
53521;SDS011;39398;48.382;9.802;2024-01-15T02:30:31;24.10;;;10.82;;
53521;SDS011;39398;48.382;9.802;2024-01-15T02:35:33;21.30;;;9.77;;
53521;SDS011;39398;48.382;9.802;2024-01-15T02:40:37;22.83;;;10.05;;
53521;SDS011;39398;48.382;9.802;2024-01-15T02:45:40;16.30;;;8.20;;
53521;SDS011;39398;48.382;9.802;2024-01-15T02:50:42;15.80;;;8.18;;
53521;SDS011;39398;48.382;9.802;2024-01-15T02:55:44;17.83;;;8.18;;
53521;SDS011;39398;48.382;9.802;2024-01-15T03:00:46;18.63;;;8.77;;
53521;SDS011;39398;48.382;9.802;2024-01-15T03:05:48;22.52;;;8.68;;
53521;SDS011;39398;48.382;9.802;2024-01-15T03:10:51;14.55;;;7.82;;
53521;SDS011;39398;48.382;9.802;2024-01-15T03:15:52;18.38;;;8.75;;
53521;SDS011;39398;48.382;9.802;2024-01-15T03:20:54;17.73;;;8.52;;
53521;SDS011;39398;48.382;9.802;2024-01-15T03:25:57;20.58;;;8.32;;
53521;SDS011;39398;48.382;9.802;2024-01-15T03:30:58;17.88;;;8.48;;
53521;SDS011;39398;48.382;9.802;2024-01-15T03:36:00;18.83;;;8.32;;
53521;SDS011;39398;48.382;9.802;2024-01-15T03:41:03;19.63;;;8.32;;
53521;SDS011;39398;48.382;9.802;2024-01-15T03:46:05;18.40;;;8.13;;
53521;SDS011;39398;48.382;9.802;2024-01-15T03:51:06;16.10;;;8.52;;
53521;SDS011;39398;48.382;9.802;2024-01-15T03:56:09;18.10;;;9.02;;
53521;SDS011;39398;48.382;9.802;2024-01-15T04:01:11;17.63;;;8.18;;
53521;SDS011;39398;48.382;9.802;2024-01-15T04:06:13;19.00;;;7.75;;
53521;SDS011;39398;48.382;9.802;2024-01-15T04:11:16;14.05;;;7.15;;
53521;SDS011;39398;48.382;9.802;2024-01-15T04:16:18;14.90;;;6.55;;
53521;SDS011;39398;48.382;9.802;2024-01-15T04:21:19;12.00;;;5.90;;
53521;SDS011;39398;48.382;9.802;2024-01-15T04:26:22;12.90;;;5.40;;
53521;SDS011;39398;48.382;9.802;2024-01-15T04:31:24;12.63;;;5.47;;
53521;SDS011;39398;48.382;9.802;2024-01-15T04:36:27;11.18;;;4.80;;
53521;SDS011;39398;48.382;9.802;2024-01-15T04:41:30;6.15;;;3.92;;
53521;SDS011;39398;48.382;9.802;2024-01-15T04:46:31;9.43;;;4.50;;
53521;SDS011;39398;48.382;9.802;2024-01-15T04:51:33;8.65;;;5.00;;
53521;SDS011;39398;48.382;9.802;2024-01-15T04:56:36;8.52;;;4.07;;
53521;SDS011;39398;48.382;9.802;2024-01-15T05:01:38;9.25;;;4.80;;
53521;SDS011;39398;48.382;9.802;2024-01-15T05:06:40;12.48;;;6.22;;
53521;SDS011;39398;48.382;9.802;2024-01-15T05:11:43;10.35;;;4.65;;
53521;SDS011;39398;48.382;9.802;2024-01-15T05:16:46;9.48;;;4.53;;
53521;SDS011;39398;48.382;9.802;2024-01-15T05:21:48;14.32;;;6.43;;
53521;SDS011;39398;48.382;9.802;2024-01-15T05:26:51;14.25;;;6.47;;
53521;SDS011;39398;48.382;9.802;2024-01-15T05:31:53;12.88;;;5.47;;
53521;SDS011;39398;48.382;9.802;2024-01-15T05:36:54;15.80;;;7.65;;
53521;SDS011;39398;48.382;9.802;2024-01-15T05:41:57;18.20;;;8.63;;
53521;SDS011;39398;48.382;9.802;2024-01-15T05:46:59;19.63;;;9.40;;
53521;SDS011;39398;48.382;9.802;2024-01-15T05:52:01;19.00;;;9.00;;
53521;SDS011;39398;48.382;9.802;2024-01-15T05:57:04;19.35;;;8.55;;
53521;SDS011;39398;48.382;9.802;2024-01-15T06:02:06;16.95;;;8.20;;
53521;SDS011;39398;48.382;9.802;2024-01-15T06:07:07;21.48;;;9.77;;
53521;SDS011;39398;48.382;9.802;2024-01-15T06:12:10;15.85;;;7.95;;
53521;SDS011;39398;48.382;9.802;2024-01-15T06:17:12;15.27;;;7.18;;
53521;SDS011;39398;48.382;9.802;2024-01-15T06:22:13;16.25;;;7.80;;
53521;SDS011;39398;48.382;9.802;2024-01-15T06:27:16;15.52;;;8.18;;
53521;SDS011;39398;48.382;9.802;2024-01-15T06:32:18;18.92;;;9.90;;
53521;SDS011;39398;48.382;9.802;2024-01-15T06:37:20;17.00;;;8.75;;
53521;SDS011;39398;48.382;9.802;2024-01-15T06:42:23;15.77;;;7.18;;
53521;SDS011;39398;48.382;9.802;2024-01-15T06:47:24;14.32;;;7.53;;
53521;SDS011;39398;48.382;9.802;2024-01-15T06:52:26;19.90;;;10.07;;
53521;SDS011;39398;48.382;9.802;2024-01-15T06:57:29;15.13;;;7.78;;
53521;SDS011;39398;48.382;9.802;2024-01-15T07:02:30;16.48;;;7.60;;
53521;SDS011;39398;48.382;9.802;2024-01-15T07:07:32;19.85;;;9.13;;
53521;SDS011;39398;48.382;9.802;2024-01-15T07:12:35;14.52;;;8.13;;
53521;SDS011;39398;48.382;9.802;2024-01-15T07:17:37;17.40;;;8.98;;
53521;SDS011;39398;48.382;9.802;2024-01-15T07:22:38;15.55;;;7.43;;
53521;SDS011;39398;48.382;9.802;2024-01-15T07:27:41;16.50;;;7.88;;
53521;SDS011;39398;48.382;9.802;2024-01-15T07:32:43;18.60;;;8.90;;
53521;SDS011;39398;48.382;9.802;2024-01-15T07:37:45;18.42;;;8.85;;
53521;SDS011;39398;48.382;9.802;2024-01-15T07:42:48;15.88;;;7.43;;
53521;SDS011;39398;48.382;9.802;2024-01-15T07:47:49;12.73;;;6.53;;
53521;SDS011;39398;48.382;9.802;2024-01-15T07:52:51;15.63;;;7.70;;
53521;SDS011;39398;48.382;9.802;2024-01-15T07:57:54;16.33;;;7.30;;
53521;SDS011;39398;48.382;9.802;2024-01-15T08:03:06;12.60;;;6.50;;
53521;SDS011;39398;48.382;9.802;2024-01-15T08:08:08;13.00;;;6.22;;
53521;SDS011;39398;48.382;9.802;2024-01-15T08:13:11;17.15;;;7.43;;
53521;SDS011;39398;48.382;9.802;2024-01-15T08:18:13;12.43;;;6.18;;
53521;SDS011;39398;48.382;9.802;2024-01-15T08:23:15;9.48;;;5.55;;
53521;SDS011;39398;48.382;9.802;2024-01-15T08:28:18;11.05;;;6.18;;
53521;SDS011;39398;48.382;9.802;2024-01-15T08:33:19;24.50;;;13.77;;
53521;SDS011;39398;48.382;9.802;2024-01-15T08:38:23;10.63;;;5.90;;
53521;SDS011;39398;48.382;9.802;2024-01-15T08:43:26;8.20;;;5.22;;
53521;SDS011;39398;48.382;9.802;2024-01-15T08:48:27;11.50;;;6.43;;
53521;SDS011;39398;48.382;9.802;2024-01-15T08:53:29;10.15;;;5.10;;
53521;SDS011;39398;48.382;9.802;2024-01-15T08:58:32;9.95;;;5.28;;
53521;SDS011;39398;48.382;9.802;2024-01-15T09:03:34;8.05;;;5.03;;
53521;SDS011;39398;48.382;9.802;2024-01-15T09:08:35;10.73;;;4.93;;
53521;SDS011;39398;48.382;9.802;2024-01-15T09:13:38;11.75;;;4.75;;
53521;SDS011;39398;48.382;9.802;2024-01-15T09:18:40;7.35;;;3.85;;
53521;SDS011;39398;48.382;9.802;2024-01-15T09:23:41;6.15;;;4.18;;
53521;SDS011;39398;48.382;9.802;2024-01-15T09:28:45;7.70;;;4.00;;
53521;SDS011;39398;48.382;9.802;2024-01-15T09:33:47;8.07;;;3.80;;
53521;SDS011;39398;48.382;9.802;2024-01-15T09:38:48;5.13;;;3.50;;
53521;SDS011;39398;48.382;9.802;2024-01-15T09:43:51;9.80;;;3.50;;
53521;SDS011;39398;48.382;9.802;2024-01-15T09:48:53;4.88;;;3.15;;
53521;SDS011;39398;48.382;9.802;2024-01-15T09:53:55;5.78;;;3.35;;
53521;SDS011;39398;48.382;9.802;2024-01-15T09:58:58;3.03;;;2.05;;
53521;SDS011;39398;48.382;9.802;2024-01-15T10:04:01;3.10;;;2.17;;
53521;SDS011;39398;48.382;9.802;2024-01-15T10:09:02;2.35;;;1.83;;
53521;SDS011;39398;48.382;9.802;2024-01-15T10:14:06;2.58;;;1.50;;
53521;SDS011;39398;48.382;9.802;2024-01-15T10:19:07;2.20;;;1.80;;
53521;SDS011;39398;48.382;9.802;2024-01-15T10:24:09;2.05;;;1.77;;
53521;SDS011;39398;48.382;9.802;2024-01-15T10:29:14;2.28;;;1.80;;
53521;SDS011;39398;48.382;9.802;2024-01-15T10:34:16;2.20;;;2.00;;
53521;SDS011;39398;48.382;9.802;2024-01-15T10:39:18;2.33;;;1.90;;
53521;SDS011;39398;48.382;9.802;2024-01-15T10:44:21;3.95;;;2.45;;
53521;SDS011;39398;48.382;9.802;2024-01-15T10:49:22;1.88;;;1.77;;
53521;SDS011;39398;48.382;9.802;2024-01-15T10:54:24;2.28;;;2.05;;
53521;SDS011;39398;48.382;9.802;2024-01-15T10:59:29;2.92;;;2.25;;
53521;SDS011;39398;48.382;9.802;2024-01-15T11:04:31;3.72;;;1.88;;
53521;SDS011;39398;48.382;9.802;2024-01-15T11:09:34;2.97;;;2.00;;
53521;SDS011;39398;48.382;9.802;2024-01-15T11:14:39;3.13;;;1.95;;
53521;SDS011;39398;48.382;9.802;2024-01-15T11:19:42;3.15;;;2.15;;
53521;SDS011;39398;48.382;9.802;2024-01-15T11:24:45;4.13;;;2.50;;
53521;SDS011;39398;48.382;9.802;2024-01-15T11:29:48;7.45;;;4.18;;
53521;SDS011;39398;48.382;9.802;2024-01-15T11:35:04;3.55;;;2.20;;
53521;SDS011;39398;48.382;9.802;2024-01-15T11:40:07;5.47;;;2.08;;
53521;SDS011;39398;48.382;9.802;2024-01-15T11:45:10;2.88;;;1.75;;
53521;SDS011;39398;48.382;9.802;2024-01-15T11:50:12;2.55;;;1.77;;
53521;SDS011;39398;48.382;9.802;2024-01-15T11:55:14;3.10;;;2.03;;
53521;SDS011;39398;48.382;9.802;2024-01-15T12:00:22;1.95;;;1.30;;
53521;SDS011;39398;48.382;9.802;2024-01-15T12:05:25;1.85;;;1.60;;
53521;SDS011;39398;48.382;9.802;2024-01-15T12:10:26;1.73;;;1.63;;
53521;SDS011;39398;48.382;9.802;2024-01-15T12:15:30;2.60;;;2.17;;
53521;SDS011;39398;48.382;9.802;2024-01-15T12:20:32;2.00;;;1.80;;
53521;SDS011;39398;48.382;9.802;2024-01-15T12:25:34;3.42;;;2.25;;
53521;SDS011;39398;48.382;9.802;2024-01-15T12:30:37;3.40;;;1.75;;
53521;SDS011;39398;48.382;9.802;2024-01-15T12:35:39;2.30;;;2.00;;
53521;SDS011;39398;48.382;9.802;2024-01-15T12:40:40;4.93;;;3.30;;
53521;SDS011;39398;48.382;9.802;2024-01-15T12:45:48;2.63;;;2.13;;
53521;SDS011;39398;48.382;9.802;2024-01-15T12:50:52;3.05;;;2.50;;
53521;SDS011;39398;48.382;9.802;2024-01-15T12:55:53;2.47;;;2.17;;
53521;SDS011;39398;48.382;9.802;2024-01-15T13:00:56;2.28;;;1.75;;
53521;SDS011;39398;48.382;9.802;2024-01-15T13:05:58;2.65;;;2.15;;
53521;SDS011;39398;48.382;9.802;2024-01-15T13:11:00;2.55;;;1.92;;
53521;SDS011;39398;48.382;9.802;2024-01-15T13:16:03;2.75;;;1.85;;
53521;SDS011;39398;48.382;9.802;2024-01-15T13:21:05;2.00;;;1.80;;
53521;SDS011;39398;48.382;9.802;2024-01-15T13:26:07;2.25;;;1.40;;
53521;SDS011;39398;48.382;9.802;2024-01-15T13:31:10;1.80;;;1.60;;
53521;SDS011;39398;48.382;9.802;2024-01-15T13:36:11;3.15;;;2.20;;
53521;SDS011;39398;48.382;9.802;2024-01-15T13:41:13;3.15;;;1.98;;
53521;SDS011;39398;48.382;9.802;2024-01-15T13:46:16;2.65;;;2.00;;
53521;SDS011;39398;48.382;9.802;2024-01-15T13:51:18;3.70;;;2.80;;
53521;SDS011;39398;48.382;9.802;2024-01-15T13:56:19;4.60;;;2.95;;
53521;SDS011;39398;48.382;9.802;2024-01-15T14:01:23;4.32;;;2.00;;
53521;SDS011;39398;48.382;9.802;2024-01-15T14:06:25;5.53;;;2.70;;
53521;SDS011;39398;48.382;9.802;2024-01-15T14:11:27;4.07;;;2.85;;
53521;SDS011;39398;48.382;9.802;2024-01-15T14:16:30;3.45;;;2.95;;
53521;SDS011;39398;48.382;9.802;2024-01-15T14:21:31;4.10;;;2.83;;
53521;SDS011;39398;48.382;9.802;2024-01-15T14:26:33;4.07;;;2.40;;
53521;SDS011;39398;48.382;9.802;2024-01-15T14:31:36;5.28;;;3.47;;
53521;SDS011;39398;48.382;9.802;2024-01-15T14:36:37;6.20;;;3.45;;
53521;SDS011;39398;48.382;9.802;2024-01-15T14:41:39;7.43;;;4.18;;
53521;SDS011;39398;48.382;9.802;2024-01-15T14:46:42;3.85;;;2.70;;
53521;SDS011;39398;48.382;9.802;2024-01-15T14:51:43;4.82;;;3.25;;
53521;SDS011;39398;48.382;9.802;2024-01-15T14:56:45;6.57;;;3.63;;
53521;SDS011;39398;48.382;9.802;2024-01-15T15:01:49;6.10;;;4.32;;
53521;SDS011;39398;48.382;9.802;2024-01-15T15:06:51;7.10;;;3.78;;
53521;SDS011;39398;48.382;9.802;2024-01-15T15:11:53;7.50;;;3.67;;
53521;SDS011;39398;48.382;9.802;2024-01-15T15:16:56;7.20;;;3.55;;
53521;SDS011;39398;48.382;9.802;2024-01-15T15:21:57;7.47;;;4.40;;
53521;SDS011;39398;48.382;9.802;2024-01-15T15:26:59;9.02;;;3.67;;
53521;SDS011;39398;48.382;9.802;2024-01-15T15:32:02;5.18;;;2.95;;
53521;SDS011;39398;48.382;9.802;2024-01-15T15:37:04;6.82;;;4.15;;
53521;SDS011;39398;48.382;9.802;2024-01-15T15:42:05;6.85;;;3.72;;
53521;SDS011;39398;48.382;9.802;2024-01-15T15:47:08;7.13;;;4.25;;
53521;SDS011;39398;48.382;9.802;2024-01-15T15:52:10;6.60;;;3.80;;
53521;SDS011;39398;48.382;9.802;2024-01-15T15:57:12;5.65;;;3.83;;
53521;SDS011;39398;48.382;9.802;2024-01-15T16:02:15;4.43;;;3.20;;
53521;SDS011;39398;48.382;9.802;2024-01-15T16:07:16;5.80;;;3.80;;
53521;SDS011;39398;48.382;9.802;2024-01-15T16:12:18;5.95;;;3.53;;
53521;SDS011;39398;48.382;9.802;2024-01-15T16:17:21;5.80;;;2.92;;
53521;SDS011;39398;48.382;9.802;2024-01-15T16:22:43;4.00;;;2.75;;
53521;SDS011;39398;48.382;9.802;2024-01-15T16:28:04;3.30;;;2.75;;
53521;SDS011;39398;48.382;9.802;2024-01-15T16:33:07;3.60;;;2.75;;
53521;SDS011;39398;48.382;9.802;2024-01-15T16:38:09;3.92;;;2.75;;
53521;SDS011;39398;48.382;9.802;2024-01-15T16:43:11;4.68;;;3.30;;
53521;SDS011;39398;48.382;9.802;2024-01-15T16:48:14;6.50;;;3.50;;
53521;SDS011;39398;48.382;9.802;2024-01-15T16:53:16;5.20;;;3.75;;
53521;SDS011;39398;48.382;9.802;2024-01-15T16:58:17;7.43;;;4.45;;
53521;SDS011;39398;48.382;9.802;2024-01-15T17:03:20;6.68;;;4.50;;
53521;SDS011;39398;48.382;9.802;2024-01-15T17:08:22;7.65;;;4.00;;
53521;SDS011;39398;48.382;9.802;2024-01-15T17:13:23;4.55;;;3.60;;
53521;SDS011;39398;48.382;9.802;2024-01-15T17:18:26;6.45;;;3.67;;
53521;SDS011;39398;48.382;9.802;2024-01-15T17:23:29;4.47;;;3.30;;
53521;SDS011;39398;48.382;9.802;2024-01-15T17:28:30;4.93;;;3.53;;
53521;SDS011;39398;48.382;9.802;2024-01-15T17:33:33;4.38;;;3.28;;
53521;SDS011;39398;48.382;9.802;2024-01-15T17:38:35;5.78;;;3.90;;
53521;SDS011;39398;48.382;9.802;2024-01-15T17:43:36;5.97;;;3.20;;
53521;SDS011;39398;48.382;9.802;2024-01-15T17:48:39;8.10;;;4.70;;
53521;SDS011;39398;48.382;9.802;2024-01-15T17:53:41;6.85;;;4.50;;
53521;SDS011;39398;48.382;9.802;2024-01-15T17:58:43;8.35;;;5.07;;
53521;SDS011;39398;48.382;9.802;2024-01-15T18:03:46;4.82;;;3.25;;
53521;SDS011;39398;48.382;9.802;2024-01-15T18:08:48;6.35;;;4.38;;
53521;SDS011;39398;48.382;9.802;2024-01-15T18:13:50;7.20;;;4.32;;
53521;SDS011;39398;48.382;9.802;2024-01-15T18:18:53;6.07;;;3.53;;
53521;SDS011;39398;48.382;9.802;2024-01-15T18:23:55;6.70;;;3.78;;
53521;SDS011;39398;48.382;9.802;2024-01-15T18:28:56;6.10;;;4.25;;
53521;SDS011;39398;48.382;9.802;2024-01-15T18:33:59;5.47;;;3.85;;
53521;SDS011;39398;48.382;9.802;2024-01-15T18:39:01;6.13;;;3.78;;
53521;SDS011;39398;48.382;9.802;2024-01-15T18:44:02;6.18;;;4.53;;
53521;SDS011;39398;48.382;9.802;2024-01-15T18:49:05;7.03;;;4.40;;
53521;SDS011;39398;48.382;9.802;2024-01-15T18:54:08;6.80;;;4.43;;
53521;SDS011;39398;48.382;9.802;2024-01-15T18:59:09;7.38;;;4.88;;
53521;SDS011;39398;48.382;9.802;2024-01-15T19:04:12;8.30;;;4.55;;
53521;SDS011;39398;48.382;9.802;2024-01-15T19:09:14;9.02;;;3.85;;
53521;SDS011;39398;48.382;9.802;2024-01-15T19:14:16;8.10;;;4.72;;
53521;SDS011;39398;48.382;9.802;2024-01-15T19:19:19;6.82;;;4.65;;
53521;SDS011;39398;48.382;9.802;2024-01-15T19:24:20;10.38;;;4.60;;
53521;SDS011;39398;48.382;9.802;2024-01-15T19:29:22;5.63;;;3.72;;
53521;SDS011;39398;48.382;9.802;2024-01-15T19:34:25;5.32;;;3.67;;
53521;SDS011;39398;48.382;9.802;2024-01-15T19:39:27;7.50;;;4.18;;
53521;SDS011;39398;48.382;9.802;2024-01-15T19:44:28;6.03;;;3.20;;
53521;SDS011;39398;48.382;9.802;2024-01-15T19:49:31;5.35;;;3.55;;
53521;SDS011;39398;48.382;9.802;2024-01-15T19:54:33;5.78;;;3.60;;
53521;SDS011;39398;48.382;9.802;2024-01-15T19:59:35;6.80;;;3.40;;
53521;SDS011;39398;48.382;9.802;2024-01-15T20:04:38;12.93;;;4.28;;
53521;SDS011;39398;48.382;9.802;2024-01-15T20:09:40;5.07;;;3.40;;
53521;SDS011;39398;48.382;9.802;2024-01-15T20:14:41;4.13;;;2.83;;
53521;SDS011;39398;48.382;9.802;2024-01-15T20:19:44;6.22;;;4.13;;
53521;SDS011;39398;48.382;9.802;2024-01-15T20:24:46;4.90;;;3.47;;
53521;SDS011;39398;48.382;9.802;2024-01-15T20:29:48;9.20;;;4.07;;
53521;SDS011;39398;48.382;9.802;2024-01-15T20:34:51;6.45;;;3.90;;
53521;SDS011;39398;48.382;9.802;2024-01-15T20:39:53;7.00;;;4.95;;
53521;SDS011;39398;48.382;9.802;2024-01-15T20:44:54;7.63;;;3.22;;
53521;SDS011;39398;48.382;9.802;2024-01-15T20:49:57;5.18;;;3.35;;
53521;SDS011;39398;48.382;9.802;2024-01-15T20:54:59;5.65;;;3.55;;
53521;SDS011;39398;48.382;9.802;2024-01-15T21:00:01;5.55;;;3.17;;
53521;SDS011;39398;48.382;9.802;2024-01-15T21:05:04;7.43;;;4.45;;
53521;SDS011;39398;48.382;9.802;2024-01-15T21:10:07;6.05;;;4.15;;
53521;SDS011;39398;48.382;9.802;2024-01-15T21:15:09;9.43;;;4.75;;
53521;SDS011;39398;48.382;9.802;2024-01-15T21:20:12;6.90;;;4.53;;
53521;SDS011;39398;48.382;9.802;2024-01-15T21:25:14;8.57;;;4.57;;
53521;SDS011;39398;48.382;9.802;2024-01-15T21:30:16;9.30;;;4.18;;
53521;SDS011;39398;48.382;9.802;2024-01-15T21:35:19;10.20;;;4.80;;
53521;SDS011;39398;48.382;9.802;2024-01-15T21:40:20;8.05;;;3.58;;
53521;SDS011;39398;48.382;9.802;2024-01-15T21:45:22;8.43;;;4.65;;
53521;SDS011;39398;48.382;9.802;2024-01-15T21:50:25;8.27;;;5.22;;
53521;SDS011;39398;48.382;9.802;2024-01-15T21:55:26;8.35;;;4.85;;
53521;SDS011;39398;48.382;9.802;2024-01-15T22:00:28;10.55;;;5.65;;
53521;SDS011;39398;48.382;9.802;2024-01-15T22:05:31;8.27;;;4.57;;
53521;SDS011;39398;48.382;9.802;2024-01-15T22:10:33;10.63;;;5.32;;
53521;SDS011;39398;48.382;9.802;2024-01-15T22:15:34;6.45;;;4.65;;
53521;SDS011;39398;48.382;9.802;2024-01-15T22:20:37;8.00;;;4.65;;
53521;SDS011;39398;48.382;9.802;2024-01-15T22:25:39;9.25;;;4.78;;
53521;SDS011;39398;48.382;9.802;2024-01-15T22:30:41;9.00;;;4.07;;
53521;SDS011;39398;48.382;9.802;2024-01-15T22:35:44;5.75;;;4.35;;
53521;SDS011;39398;48.382;9.802;2024-01-15T22:40:45;9.05;;;4.20;;
53521;SDS011;39398;48.382;9.802;2024-01-15T22:45:47;6.97;;;4.20;;
53521;SDS011;39398;48.382;9.802;2024-01-15T22:50:50;6.93;;;3.80;;
53521;SDS011;39398;48.382;9.802;2024-01-15T22:55:52;7.32;;;4.40;;
53521;SDS011;39398;48.382;9.802;2024-01-15T23:00:53;7.55;;;4.38;;
53521;SDS011;39398;48.382;9.802;2024-01-15T23:05:56;7.43;;;4.43;;
53521;SDS011;39398;48.382;9.802;2024-01-15T23:10:58;6.13;;;3.80;;
53521;SDS011;39398;48.382;9.802;2024-01-15T23:16:00;6.45;;;4.22;;
53521;SDS011;39398;48.382;9.802;2024-01-15T23:21:03;6.00;;;3.95;;
53521;SDS011;39398;48.382;9.802;2024-01-15T23:26:05;5.47;;;3.92;;
53521;SDS011;39398;48.382;9.802;2024-01-15T23:31:06;6.13;;;3.45;;
53521;SDS011;39398;48.382;9.802;2024-01-15T23:36:09;6.32;;;3.63;;
53521;SDS011;39398;48.382;9.802;2024-01-15T23:41:16;7.72;;;3.08;;
53521;SDS011;39398;48.382;9.802;2024-01-15T23:46:18;8.18;;;3.45;;
53521;SDS011;39398;48.382;9.802;2024-01-15T23:51:21;5.85;;;3.03;;
53521;SDS011;39398;48.382;9.802;2024-01-15T23:56:23;5.22;;;3.50;;
